createdAt,value
2022-08-11T00:00:11.674Z,2.78
2022-08-11T00:02:50.942Z,2.20
2022-08-11T00:05:21.373Z,2.63
2022-08-11T00:10:20.444Z,2.58
2022-08-11T00:12:56.890Z,2.80
2022-08-11T00:15:37.203Z,2.35
2022-08-11T00:18:04.756Z,2.30
2022-08-11T00:20:34.541Z,3.00
2022-08-11T00:23:13.666Z,3.30
2022-08-11T00:25:54.539Z,2.88
2022-08-11T00:28:33.338Z,3.10
2022-08-11T00:31:05.017Z,3.10
2022-08-11T00:33:44.832Z,3.15
2022-08-11T00:38:43.509Z,3.00
2022-08-11T00:41:20.393Z,2.50
2022-08-11T00:43:59.646Z,3.08
2022-08-11T00:46:26.519Z,3.90
2022-08-11T00:49:36.809Z,2.80
2022-08-11T00:52:21.668Z,3.08
2022-08-11T00:55:13.948Z,2.63
2022-08-11T00:58:02.672Z,2.72
2022-08-11T01:00:35.236Z,3.25
2022-08-11T01:03:18.309Z,3.40
2022-08-11T01:06:04.499Z,3.60
2022-08-11T01:08:44.025Z,4.45
2022-08-11T01:11:29.791Z,3.25
2022-08-11T01:14:33.682Z,3.28
2022-08-11T01:17:14.266Z,3.83
2022-08-11T01:20:02.820Z,3.13
2022-08-11T01:23:15.792Z,3.58
2022-08-11T01:26:42.624Z,3.72
2022-08-11T01:29:34.417Z,2.63
2022-08-11T01:32:22.721Z,3.35
2022-08-11T01:35:13.628Z,3.40
2022-08-11T01:37:49.328Z,3.78
2022-08-11T01:40:43.887Z,3.75
2022-08-11T01:43:50.891Z,3.15
2022-08-11T01:46:45.339Z,2.85
2022-08-11T01:50:08.446Z,3.63
2022-08-11T01:53:01.019Z,2.97
2022-08-11T01:55:32.385Z,4.07
2022-08-11T01:58:08.323Z,3.50
2022-08-11T02:00:52.312Z,4.20
2022-08-11T02:03:44.797Z,4.65
2022-08-11T02:06:39.001Z,3.33
2022-08-11T02:09:32.012Z,3.97
2022-08-11T02:12:30.806Z,3.42
2022-08-11T02:15:20.703Z,3.47
2022-08-11T02:17:51.597Z,4.40
2022-08-11T02:20:48.962Z,3.28
2022-08-11T02:24:04.858Z,2.88
2022-08-11T02:26:48.454Z,3.47
2022-08-11T02:29:33.709Z,3.30
2022-08-11T02:32:41.449Z,3.63
2022-08-11T02:35:50.358Z,2.83
2022-08-11T02:38:30.746Z,3.20
2022-08-11T02:41:25.684Z,2.85
2022-08-11T02:44:28.255Z,3.45
2022-08-11T02:47:19.766Z,3.67
2022-08-11T02:50:02.583Z,3.42
2022-08-11T02:53:21.987Z,4.10
2022-08-11T02:56:09.131Z,2.97
2022-08-11T02:59:08.823Z,3.92
2022-08-11T03:01:54.013Z,3.33
2022-08-11T03:04:49.880Z,4.22
2022-08-11T03:07:29.112Z,2.78
2022-08-11T03:10:24.798Z,3.88
2022-08-11T03:13:20.534Z,3.38
2022-08-11T03:16:27.917Z,3.42
2022-08-11T03:19:33.175Z,3.03
2022-08-11T03:22:16.100Z,3.42
2022-08-11T03:25:13.222Z,4.45
2022-08-11T03:27:59.763Z,3.85
2022-08-11T03:30:54.740Z,3.10
2022-08-11T03:33:56.200Z,3.50
2022-08-11T03:36:36.871Z,3.50
2022-08-11T03:40:04.321Z,3.75
2022-08-11T03:42:53.764Z,3.53
2022-08-11T03:45:41.188Z,3.75
2022-08-11T03:48:19.238Z,3.83
2022-08-11T03:50:57.888Z,3.47
2022-08-11T03:53:47.816Z,3.47
2022-08-11T03:56:51.743Z,3.50
2022-08-11T04:00:02.777Z,3.40
2022-08-11T04:02:57.103Z,3.08
2022-08-11T04:06:02.400Z,4.35
2022-08-11T04:09:04.409Z,3.35
2022-08-11T04:11:58.480Z,4.18
2022-08-11T04:15:02.704Z,3.75
2022-08-11T04:17:38.529Z,3.00
2022-08-11T04:20:14.324Z,3.45
2022-08-11T04:23:05.711Z,3.13
2022-08-11T04:26:16.112Z,3.25
2022-08-11T04:29:10.123Z,3.30
2022-08-11T04:31:44.268Z,2.95
2022-08-11T04:34:28.341Z,3.25
2022-08-11T04:37:14.037Z,2.88
2022-08-11T04:40:06.397Z,2.92
2022-08-11T04:43:19.190Z,2.60
2022-08-11T04:46:23.310Z,2.83
2022-08-11T04:49:48.337Z,3.90
2022-08-11T04:52:52.797Z,2.67
2022-08-11T04:55:50.802Z,2.65
2022-08-11T04:59:05.598Z,2.55
2022-08-11T05:01:41.292Z,3.10
2022-08-11T05:04:48.797Z,3.33
2022-08-11T05:08:00.796Z,2.75
2022-08-11T05:10:56.011Z,2.67
2022-08-11T05:13:51.672Z,2.75
2022-08-11T05:17:00.077Z,4.35
2022-08-11T05:19:45.560Z,3.00
2022-08-11T05:22:32.708Z,2.75
2022-08-11T05:26:42.577Z,2.58
2022-08-11T05:29:21.546Z,2.35
2022-08-11T05:32:18.024Z,2.90
2022-08-11T05:34:54.244Z,2.40
2022-08-11T05:37:34.285Z,3.10
2022-08-11T05:40:31.687Z,2.30
2022-08-11T05:43:31.152Z,2.40
2022-08-11T05:46:23.340Z,2.83
2022-08-11T05:49:10.328Z,3.25
2022-08-11T05:52:05.135Z,2.10
2022-08-11T05:54:59.862Z,2.75
2022-08-11T05:57:49.044Z,2.20
2022-08-11T06:00:19.842Z,2.58
2022-08-11T06:02:56.317Z,2.63
2022-08-11T06:05:43.180Z,2.42
2022-08-11T06:08:13.473Z,2.53
2022-08-11T06:10:42.410Z,1.95
2022-08-11T06:13:10.921Z,2.35
2022-08-11T06:15:47.145Z,2.13
2022-08-11T06:18:15.284Z,2.20
2022-08-11T06:20:55.096Z,2.95
2022-08-11T06:23:23.666Z,2.45
2022-08-11T06:25:52.946Z,2.80
2022-08-11T06:28:32.638Z,1.85
2022-08-11T06:31:00.084Z,1.63
2022-08-11T06:33:35.263Z,1.67
2022-08-11T06:36:15.855Z,1.42
2022-08-11T06:39:13.225Z,1.73
2022-08-11T06:41:48.627Z,1.33
2022-08-11T06:44:21.136Z,1.92
2022-08-11T06:46:54.646Z,1.50
2022-08-11T06:49:42.769Z,1.40
2022-08-11T06:52:32.158Z,1.30
2022-08-11T06:55:14.098Z,3.22
2022-08-11T06:58:15.117Z,1.13
2022-08-11T07:00:42.401Z,1.20
2022-08-11T07:03:13.469Z,1.10
2022-08-11T07:05:55.094Z,1.58
2022-08-11T07:08:49.957Z,1.58
2022-08-11T07:12:08.036Z,1.52
2022-08-11T07:15:00.738Z,1.00
2022-08-11T07:17:31.766Z,1.10
2022-08-11T07:20:20.117Z,1.35
2022-08-11T07:23:14.802Z,1.58
2022-08-11T07:26:02.337Z,1.20
2022-08-11T07:28:50.338Z,1.10
2022-08-11T07:31:35.853Z,1.23
2022-08-11T07:34:20.600Z,0.65
2022-08-11T07:36:56.610Z,0.65
2022-08-11T07:39:36.605Z,1.10
2022-08-11T07:42:13.289Z,1.33
2022-08-11T07:45:01.279Z,1.40
2022-08-11T07:47:48.261Z,0.90
2022-08-11T07:50:34.837Z,1.05
2022-08-11T07:53:04.177Z,1.63
2022-08-11T07:55:50.941Z,1.38
2022-08-11T07:58:45.727Z,1.20
2022-08-11T08:01:43.454Z,1.85
2022-08-11T08:04:31.894Z,0.98
2022-08-11T08:07:19.611Z,1.30
2022-08-11T08:10:06.777Z,1.50
2022-08-11T08:12:53.959Z,1.10
2022-08-11T08:15:41.063Z,1.52
2022-08-11T08:18:25.860Z,1.38
2022-08-11T08:20:56.932Z,1.33
2022-08-11T08:23:34.060Z,1.80
2022-08-11T08:26:04.545Z,1.52
2022-08-11T08:31:00.368Z,1.55
2022-08-11T08:33:30.417Z,1.92
2022-08-11T08:36:12.552Z,1.65
2022-08-11T08:38:58.203Z,1.60
2022-08-11T08:41:29.824Z,1.52
2022-08-11T08:44:34.711Z,1.73
2022-08-11T08:46:54.694Z,2.55
2022-08-11T08:49:40.078Z,1.40
2022-08-11T08:52:26.204Z,1.35
2022-08-11T08:55:04.476Z,1.42
2022-08-11T08:57:39.237Z,1.58
2022-08-11T09:00:08.835Z,1.92
2022-08-11T09:02:40.000Z,1.35
2022-08-11T09:05:09.997Z,1.23
2022-08-11T09:07:40.807Z,1.50
2022-08-11T09:10:11.577Z,1.65
2022-08-11T09:12:41.410Z,1.63
2022-08-11T09:15:11.571Z,1.83
2022-08-11T09:17:53.321Z,1.60
2022-08-11T09:20:26.865Z,1.30
2022-08-11T09:26:30.291Z,1.38
2022-08-11T09:28:59.061Z,1.52
2022-08-11T09:31:26.962Z,1.92
2022-08-11T09:33:55.396Z,2.00
2022-08-11T09:36:41.276Z,1.58
2022-08-11T09:39:27.676Z,1.30
2022-08-11T09:42:01.217Z,1.50
2022-08-11T09:44:50.612Z,1.08
2022-08-11T09:47:27.937Z,1.63
2022-08-11T09:50:01.480Z,1.80
2022-08-11T09:52:37.928Z,1.60
2022-08-11T09:55:11.234Z,1.60
2022-08-11T09:58:05.245Z,1.45
2022-08-11T10:00:39.509Z,1.98
2022-08-11T10:03:22.816Z,1.98
2022-08-11T10:06:20.128Z,1.60
2022-08-11T10:09:00.963Z,1.58
2022-08-11T10:11:29.173Z,1.75
2022-08-11T10:14:33.816Z,1.67
2022-08-11T10:17:06.996Z,1.33
2022-08-11T10:19:38.686Z,1.27
2022-08-11T10:22:26.792Z,1.75
2022-08-11T10:25:20.075Z,2.03
2022-08-11T10:28:28.775Z,1.88
2022-08-11T10:31:06.685Z,1.45
2022-08-11T10:33:59.360Z,1.65
2022-08-11T10:36:33.024Z,1.38
2022-08-11T10:39:02.421Z,2.00
2022-08-11T10:42:03.424Z,1.20
2022-08-11T10:44:44.452Z,1.65
2022-08-11T10:47:32.350Z,1.88
2022-08-11T10:50:18.847Z,1.67
2022-08-11T10:53:07.248Z,1.42
2022-08-11T10:55:58.731Z,1.50
2022-08-11T10:58:44.848Z,3.20
2022-08-11T11:01:12.405Z,1.27
2022-08-11T11:03:39.736Z,1.45
2022-08-11T11:06:28.252Z,1.17
2022-08-11T11:09:15.564Z,1.77
2022-08-11T11:12:11.478Z,1.45
2022-08-11T11:15:00.648Z,1.50
2022-08-11T11:17:53.934Z,1.50
2022-08-11T11:20:35.791Z,1.42
2022-08-11T11:23:33.918Z,1.40
2022-08-11T11:26:50.427Z,1.58
2022-08-11T11:29:35.248Z,1.67
2022-08-11T11:32:24.229Z,1.35
2022-08-11T11:34:59.299Z,2.05
2022-08-11T11:37:26.611Z,1.88
2022-08-11T11:39:55.232Z,1.50
2022-08-11T11:42:22.952Z,1.52
2022-08-11T11:44:54.145Z,1.27
2022-08-11T11:47:23.354Z,1.15
2022-08-11T11:49:50.752Z,1.15
2022-08-11T11:52:20.531Z,1.38
2022-08-11T11:54:50.563Z,1.10
2022-08-11T12:00:25.261Z,2.83
2022-08-11T12:03:03.197Z,1.17
2022-08-11T12:05:33.531Z,1.10
2022-08-11T12:08:14.952Z,1.42
2022-08-11T12:10:44.902Z,1.20
2022-08-11T12:13:31.276Z,1.40
2022-08-11T12:16:32.981Z,1.20
2022-08-11T12:18:56.884Z,1.75
2022-08-11T12:21:25.241Z,1.08
2022-08-11T12:24:13.388Z,1.48
2022-08-11T12:27:02.770Z,1.40
2022-08-11T12:29:39.894Z,1.55
2022-08-11T12:32:09.036Z,1.23
2022-08-11T12:34:36.848Z,1.20
2022-08-11T12:37:13.633Z,1.02
2022-08-11T12:40:43.099Z,1.60
2022-08-11T12:43:38.004Z,1.45
2022-08-11T12:46:31.759Z,1.20
2022-08-11T12:49:21.623Z,1.25
2022-08-11T12:52:06.725Z,2.03
2022-08-11T12:54:57.373Z,1.48
2022-08-11T12:57:43.104Z,1.45
2022-08-11T13:00:29.508Z,1.02
2022-08-11T13:03:15.846Z,1.42
2022-08-11T13:05:44.579Z,1.20
2022-08-11T13:08:16.579Z,1.52
2022-08-11T13:11:03.885Z,0.88
2022-08-11T13:13:55.269Z,1.75
2022-08-11T13:16:20.589Z,1.42
2022-08-11T13:18:48.557Z,1.60
2022-08-11T13:21:20.470Z,1.17
2022-08-11T13:24:01.752Z,1.48
2022-08-11T13:26:48.285Z,1.73
2022-08-11T13:29:26.371Z,1.33
2022-08-11T13:31:56.563Z,1.30
2022-08-11T13:34:26.858Z,1.08
2022-08-11T13:36:57.065Z,1.83
2022-08-11T13:39:26.861Z,1.52
2022-08-11T13:41:56.667Z,2.30
2022-08-11T13:44:30.045Z,1.30
2022-08-11T13:47:01.347Z,1.58
2022-08-11T13:49:30.873Z,1.25
2022-08-11T13:51:59.063Z,1.50
2022-08-11T13:54:30.130Z,1.10
2022-08-11T13:57:00.995Z,1.27
2022-08-11T13:59:31.131Z,1.20
2022-08-11T14:02:28.386Z,1.30
2022-08-11T14:05:01.549Z,1.45
2022-08-11T14:07:39.782Z,1.15
2022-08-11T14:10:08.913Z,2.78
2022-08-11T14:12:56.409Z,1.23
2022-08-11T14:15:34.905Z,0.95
2022-08-11T14:18:06.463Z,1.17
2022-08-11T14:20:55.786Z,0.95
2022-08-11T14:23:37.451Z,2.05
2022-08-11T14:26:23.623Z,1.10
2022-08-11T14:28:55.215Z,1.42
2022-08-11T14:31:25.530Z,1.55
2022-08-11T14:33:59.833Z,1.20
2022-08-11T14:36:45.974Z,1.10
2022-08-11T14:39:18.739Z,1.85
2022-08-11T14:42:12.088Z,1.20
2022-08-11T14:45:04.154Z,1.02
2022-08-11T14:47:34.868Z,1.25
2022-08-11T14:50:11.391Z,1.60
2022-08-11T14:52:55.548Z,1.25
2022-08-11T14:55:43.784Z,1.90
2022-08-11T14:58:13.244Z,1.65
2022-08-11T15:00:42.972Z,1.48
2022-08-11T15:03:14.321Z,1.65
2022-08-11T15:05:57.481Z,1.10
2022-08-11T15:08:49.262Z,1.35
2022-08-11T15:11:37.309Z,1.33
2022-08-11T15:14:07.450Z,1.42
2022-08-11T15:16:56.000Z,1.30
2022-08-11T15:19:25.092Z,0.90
2022-08-11T15:22:10.724Z,1.10
2022-08-11T15:24:37.923Z,0.80
2022-08-11T15:27:27.935Z,1.08
2022-08-11T15:33:21.939Z,1.27
2022-08-11T15:36:08.995Z,1.40
2022-08-11T15:38:42.719Z,1.10
2022-08-11T15:41:31.707Z,1.17
2022-08-11T15:44:17.904Z,1.23
2022-08-11T15:46:50.353Z,0.93
2022-08-11T15:50:10.861Z,1.13
2022-08-11T15:52:34.630Z,1.20
2022-08-11T15:55:08.741Z,2.95
2022-08-11T15:57:56.872Z,1.23
2022-08-11T16:00:43.167Z,1.30
2022-08-11T16:04:06.371Z,1.73
2022-08-11T16:06:19.742Z,1.00
2022-08-11T16:08:51.504Z,1.00
2022-08-11T16:11:19.754Z,0.77
2022-08-11T16:13:47.238Z,1.52
2022-08-11T16:16:15.866Z,1.48
2022-08-11T16:18:52.092Z,0.90
2022-08-11T16:21:34.161Z,1.23
2022-08-11T16:24:06.468Z,0.85
2022-08-11T16:27:08.056Z,1.30
2022-08-11T16:29:25.389Z,1.00
2022-08-11T16:32:14.378Z,1.42
2022-08-11T16:35:02.442Z,1.48
2022-08-11T16:37:51.553Z,1.52
2022-08-11T16:40:20.731Z,0.80
2022-08-11T16:43:10.767Z,1.00
2022-08-11T16:45:59.126Z,0.98
2022-08-11T16:48:36.175Z,0.85
2022-08-11T16:51:10.984Z,2.15
2022-08-11T16:53:50.124Z,0.93
2022-08-11T16:56:45.825Z,1.23
2022-08-11T16:59:31.853Z,1.20
2022-08-11T17:02:06.822Z,1.45
2022-08-11T17:05:11.856Z,1.17
2022-08-11T17:08:02.285Z,1.25
2022-08-11T17:10:56.451Z,1.52
2022-08-11T17:13:44.046Z,1.27
2022-08-11T17:16:13.600Z,1.10
2022-08-11T17:18:50.185Z,0.80
2022-08-11T17:21:30.033Z,2.10
2022-08-11T17:24:08.415Z,1.13
2022-08-11T17:26:58.788Z,3.42
2022-08-11T17:29:58.183Z,0.95
2022-08-11T17:32:55.737Z,2.40
2022-08-11T17:35:32.761Z,1.23
2022-08-11T17:38:15.757Z,1.00
2022-08-11T17:41:05.914Z,1.02
2022-08-11T17:46:38.563Z,1.13
2022-08-11T17:49:08.423Z,1.02
2022-08-11T17:51:55.347Z,1.63
2022-08-11T17:54:42.811Z,1.05
2022-08-11T17:57:30.401Z,1.13
2022-08-11T17:59:59.587Z,2.22
2022-08-11T18:02:56.358Z,1.13
2022-08-11T18:05:30.158Z,1.60
2022-08-11T18:08:17.981Z,1.00
2022-08-11T18:11:04.910Z,1.30
2022-08-11T18:13:54.739Z,1.25
2022-08-11T18:16:40.674Z,1.10
2022-08-11T18:19:27.115Z,1.30
2022-08-11T18:22:34.422Z,1.33
2022-08-11T18:25:28.265Z,1.23
2022-08-11T18:28:15.442Z,1.38
2022-08-11T18:31:06.617Z,1.40
2022-08-11T18:34:12.140Z,1.27
2022-08-11T18:37:24.939Z,1.30
2022-08-11T18:40:18.726Z,1.17
2022-08-11T18:43:06.802Z,1.40
2022-08-11T18:46:06.220Z,1.30
2022-08-11T18:48:56.409Z,1.60
2022-08-11T18:51:44.272Z,1.42
2022-08-11T18:54:32.738Z,1.60
2022-08-11T18:57:22.354Z,1.80
2022-08-11T19:00:10.875Z,1.42
2022-08-11T19:02:58.589Z,1.40
2022-08-11T19:06:06.189Z,1.33
2022-08-11T19:08:59.742Z,1.67
2022-08-11T19:11:47.847Z,1.50
2022-08-11T19:14:37.044Z,2.67
2022-08-11T19:17:44.244Z,1.30
2022-08-11T19:20:41.870Z,1.60
2022-08-11T19:23:30.108Z,1.70
2022-08-11T19:26:17.723Z,1.70
2022-08-11T19:29:06.508Z,3.45
2022-08-11T19:31:52.348Z,1.88
2022-08-11T19:34:41.648Z,2.00
2022-08-11T19:37:29.035Z,1.98
2022-08-11T19:40:25.293Z,1.95
2022-08-11T19:43:23.552Z,1.67
2022-08-11T19:46:15.801Z,1.48
2022-08-11T19:49:03.356Z,1.75
2022-08-11T19:51:54.007Z,2.58
2022-08-11T19:54:44.061Z,1.80
2022-08-11T19:57:35.713Z,2.20
2022-08-11T20:00:30.070Z,1.70
2022-08-11T20:03:17.464Z,1.45
2022-08-11T20:06:04.376Z,1.80
2022-08-11T20:08:55.025Z,1.92
2022-08-11T20:11:45.013Z,2.03
2022-08-11T20:14:32.210Z,1.90
2022-08-11T20:17:19.279Z,1.90
2022-08-11T20:20:05.015Z,1.65
2022-08-11T20:22:50.951Z,1.92
2022-08-11T20:25:38.096Z,2.35
2022-08-11T20:28:25.070Z,2.25
2022-08-11T20:31:12.038Z,2.08
2022-08-11T20:33:59.181Z,2.00
2022-08-11T20:36:46.634Z,2.10
2022-08-11T20:39:41.615Z,3.15
2022-08-11T20:42:30.782Z,2.28
2022-08-11T20:45:23.523Z,2.42
2022-08-11T20:48:14.798Z,2.55
2022-08-11T20:51:07.553Z,2.10
2022-08-11T20:53:59.538Z,1.90
2022-08-11T20:56:53.677Z,1.80
2022-08-11T20:59:56.294Z,2.70
2022-08-11T21:02:45.157Z,2.42
2022-08-11T21:06:05.429Z,1.83
2022-08-11T21:08:47.729Z,2.30
2022-08-11T21:11:34.698Z,2.08
2022-08-11T21:14:23.651Z,2.42
2022-08-11T21:17:27.555Z,3.08
2022-08-11T21:20:21.970Z,2.45
2022-08-11T21:23:24.114Z,1.92
2022-08-11T21:26:26.750Z,1.95
2022-08-11T21:29:15.054Z,1.92
2022-08-11T21:32:01.358Z,1.85
2022-08-11T21:34:47.952Z,2.60
2022-08-11T21:37:36.305Z,1.60
2022-08-11T21:40:23.835Z,2.35
2022-08-11T21:43:10.692Z,2.85
2022-08-11T21:45:57.872Z,2.50
2022-08-11T21:48:46.301Z,2.08
2022-08-11T21:51:31.649Z,2.72
2022-08-11T21:54:19.468Z,2.00
2022-08-11T21:57:06.415Z,1.75
2022-08-11T22:00:02.919Z,2.13
2022-08-11T22:03:01.182Z,3.50
2022-08-11T22:05:51.641Z,2.17
2022-08-11T22:08:37.693Z,2.10
2022-08-11T22:11:31.721Z,2.10
2022-08-11T22:14:22.459Z,2.20
2022-08-11T22:17:08.519Z,1.83
2022-08-11T22:19:56.156Z,1.80
2022-08-11T22:22:51.266Z,2.45
2022-08-11T22:25:46.477Z,1.65
2022-08-11T22:28:40.650Z,3.00
2022-08-11T22:31:27.970Z,2.15
2022-08-11T22:34:13.428Z,2.13
2022-08-11T22:37:01.471Z,2.47
2022-08-11T22:40:01.499Z,2.20
2022-08-11T22:42:50.287Z,2.70
2022-08-11T22:45:36.855Z,2.08
2022-08-11T22:48:24.209Z,2.70
2022-08-11T22:51:10.894Z,2.22
2022-08-11T22:53:58.983Z,2.00
2022-08-11T22:56:49.665Z,2.03
2022-08-11T22:59:36.908Z,2.65
2022-08-11T23:02:24.995Z,2.72
2022-08-11T23:05:11.238Z,2.20
2022-08-11T23:07:57.628Z,1.73
2022-08-11T23:10:45.063Z,1.90
2022-08-11T23:13:31.600Z,2.25
2022-08-11T23:16:17.637Z,2.47
2022-08-11T23:19:04.255Z,2.40
2022-08-11T23:21:50.747Z,2.70
2022-08-11T23:24:36.923Z,1.95
2022-08-11T23:27:24.552Z,2.38
2022-08-11T23:30:14.742Z,2.35
2022-08-11T23:33:05.481Z,2.90
2022-08-11T23:35:56.464Z,2.42
2022-08-11T23:38:43.858Z,1.88
2022-08-11T23:41:31.617Z,2.50
2022-08-11T23:44:18.503Z,3.05
2022-08-11T23:47:06.925Z,2.28
2022-08-11T23:49:55.498Z,2.13
2022-08-11T23:52:44.406Z,2.13
2022-08-11T23:55:30.254Z,2.33
2022-08-11T23:58:16.578Z,2.03
